createdAt,value
2022-12-23T00:01:43.009Z,0.57
2022-12-23T00:04:12.093Z,0.55
2022-12-23T00:06:42.611Z,0.75
2022-12-23T00:09:11.315Z,0.60
2022-12-23T00:12:01.670Z,0.63
2022-12-23T00:14:47.657Z,1.80
2022-12-23T00:17:23.668Z,0.40
2022-12-23T00:19:53.125Z,2.95
2022-12-23T00:22:44.457Z,0.30
2022-12-23T00:25:14.105Z,1.05
2022-12-23T00:27:43.300Z,1.13
2022-12-23T00:32:42.118Z,0.47
2022-12-23T00:35:11.024Z,3.15
2022-12-23T00:37:41.133Z,0.40
2022-12-23T00:40:31.677Z,3.80
2022-12-23T00:43:01.176Z,1.90
2022-12-23T00:45:29.677Z,5.97
2022-12-23T00:48:15.841Z,0.70
2022-12-23T00:50:44.787Z,0.30
2022-12-23T00:53:14.710Z,0.32
2022-12-23T00:55:43.388Z,0.60
2022-12-23T00:58:11.858Z,6.40
2022-12-23T01:00:58.232Z,0.47
2022-12-23T01:03:45.197Z,0.30
2022-12-23T01:06:14.047Z,0.35
2022-12-23T01:08:44.719Z,0.30
2022-12-23T01:11:13.967Z,4.20
2022-12-23T01:13:42.832Z,9.93
2022-12-23T01:16:17.152Z,0.10
2022-12-23T01:18:46.798Z,0.63
2022-12-23T01:21:15.306Z,8.40
2022-12-23T01:23:45.499Z,0.85
2022-12-23T01:28:43.542Z,3.25
2022-12-23T01:31:13.011Z,9.77
2022-12-23T01:33:41.624Z,7.45
2022-12-23T01:36:11.569Z,4.80
2022-12-23T01:43:57.612Z,2.25
2022-12-23T01:46:26.721Z,8.02
2022-12-23T01:48:57.289Z,9.43
2022-12-23T01:51:30.003Z,7.30
2022-12-23T01:54:02.900Z,12.65
2022-12-23T01:56:37.212Z,0.00
2022-12-23T01:59:08.927Z,0.10
2022-12-23T02:01:55.482Z,0.10
2022-12-23T02:04:30.063Z,0.47
2022-12-23T02:07:16.146Z,0.25
2022-12-23T02:09:45.531Z,4.28
2022-12-23T02:12:33.694Z,13.93
2022-12-23T02:15:49.987Z,0.10
2022-12-23T02:18:32.265Z,0.45
2022-12-23T02:26:59.630Z,0.00
2022-12-23T02:30:13.202Z,0.80
2022-12-23T02:33:01.850Z,12.60
2022-12-23T02:35:39.333Z,1.58
2022-12-23T02:38:13.675Z,4.32
2022-12-23T02:40:52.904Z,7.97
2022-12-23T02:43:30.903Z,9.85
2022-12-23T02:46:06.001Z,1.25
2022-12-23T02:48:41.096Z,13.68
2022-12-23T02:51:12.362Z,2.35
2022-12-23T02:53:45.294Z,17.30
2022-12-23T02:56:18.437Z,8.45
2022-12-23T02:58:54.537Z,11.00
2022-12-23T03:01:25.765Z,17.40
2022-12-23T03:03:57.355Z,21.63
2022-12-23T03:06:30.025Z,7.80
2022-12-23T03:09:01.561Z,8.68
2022-12-23T03:11:41.099Z,8.68
2022-12-23T03:14:42.697Z,14.07
2022-12-23T03:17:26.201Z,13.43
2022-12-23T03:20:04.876Z,27.15
2022-12-23T03:22:38.906Z,21.38
2022-12-23T03:25:15.419Z,5.18
2022-12-23T03:27:51.040Z,5.60
2022-12-23T03:30:21.808Z,4.25
2022-12-23T03:32:54.815Z,6.10
2022-12-23T03:35:28.234Z,21.02
2022-12-23T03:37:59.367Z,17.35
2022-12-23T03:40:32.015Z,27.25
2022-12-23T03:43:05.356Z,19.27
2022-12-23T03:45:41.056Z,5.63
2022-12-23T03:50:45.220Z,4.40
2022-12-23T03:53:18.425Z,4.05
2022-12-23T03:55:53.118Z,6.35
2022-12-23T03:58:32.441Z,8.85
2022-12-23T04:01:10.482Z,8.93
2022-12-23T04:03:49.213Z,10.20
2022-12-23T04:06:21.339Z,11.80
2022-12-23T04:08:51.266Z,7.90
2022-12-23T04:11:21.375Z,13.88
2022-12-23T04:13:50.540Z,6.28
2022-12-23T04:16:19.403Z,4.78
2022-12-23T04:18:47.950Z,7.53
2022-12-23T04:21:16.459Z,7.00
2022-12-23T04:23:46.505Z,6.43
2022-12-23T04:26:15.269Z,5.75
2022-12-23T04:28:43.904Z,5.68
2022-12-23T04:31:15.836Z,5.82
2022-12-23T04:33:44.680Z,3.92
2022-12-23T04:36:13.807Z,7.38
2022-12-23T04:38:43.079Z,3.50
2022-12-23T04:41:13.025Z,4.50
2022-12-23T04:43:42.599Z,5.07
2022-12-23T04:48:32.763Z,1.10
2022-12-23T04:53:30.899Z,1.58
2022-12-23T04:55:59.428Z,1.75
2022-12-23T04:58:27.990Z,1.70
2022-12-23T05:01:03.349Z,2.17
2022-12-23T05:03:33.522Z,4.32
2022-12-23T05:06:02.359Z,1.52
2022-12-23T05:08:31.284Z,3.08
2022-12-23T05:10:59.741Z,4.82
2022-12-23T05:13:28.218Z,8.77
2022-12-23T05:16:00.559Z,5.15
2022-12-23T05:18:29.077Z,11.07
2022-12-23T05:20:58.916Z,3.22
2022-12-23T05:25:55.914Z,5.57
2022-12-23T05:28:24.618Z,15.43
2022-12-23T05:30:59.269Z,5.78
2022-12-23T05:33:28.286Z,13.15
2022-12-23T05:35:57.253Z,13.18
2022-12-23T05:38:27.852Z,17.48
2022-12-23T05:40:56.422Z,10.20
2022-12-23T05:43:25.005Z,11.98
2022-12-23T05:45:53.830Z,16.40
2022-12-23T05:48:22.596Z,8.98
2022-12-23T05:50:51.766Z,13.23
2022-12-23T05:53:21.192Z,25.85
2022-12-23T05:55:51.444Z,18.33
2022-12-23T05:58:20.188Z,16.83
2022-12-23T06:00:49.347Z,21.92
2022-12-23T06:03:17.987Z,21.05
2022-12-23T06:05:51.139Z,24.58
2022-12-23T06:08:19.705Z,29.30
2022-12-23T06:10:48.215Z,20.83
2022-12-23T06:13:18.020Z,22.42
2022-12-23T06:15:46.453Z,21.13
2022-12-23T06:18:14.882Z,24.00
2022-12-23T06:20:46.468Z,27.05
2022-12-23T06:23:14.927Z,23.52
2022-12-23T06:25:43.439Z,23.17
2022-12-23T06:28:11.953Z,27.58
2022-12-23T06:30:41.729Z,22.95
2022-12-23T06:33:10.169Z,25.75
2022-12-23T06:35:38.639Z,27.98
2022-12-23T06:40:25.420Z,21.85
2022-12-23T06:45:22.974Z,20.90
2022-12-23T06:47:51.540Z,19.38
2022-12-23T06:50:20.618Z,17.95
2022-12-23T06:52:49.223Z,21.15
2022-12-23T06:55:17.838Z,20.08
2022-12-23T07:00:07.152Z,13.90
2022-12-23T07:02:36.013Z,16.13
2022-12-23T07:05:05.350Z,20.88
2022-12-23T07:07:34.084Z,16.13
2022-12-23T07:10:02.615Z,28.77
2022-12-23T07:14:51.425Z,4.80
2022-12-23T07:19:48.758Z,18.60
2022-12-23T07:22:17.535Z,16.65
2022-12-23T07:24:46.715Z,10.25
2022-12-23T07:27:15.348Z,13.68
2022-12-23T07:29:44.176Z,20.92
2022-12-23T07:32:14.072Z,12.48
2022-12-23T07:39:32.056Z,14.73
2022-12-23T07:42:33.846Z,19.90
2022-12-23T07:44:49.268Z,31.58
2022-12-23T07:47:17.989Z,26.73
2022-12-23T07:49:46.595Z,31.20
2022-12-23T07:56:53.927Z,13.07
2022-12-23T07:59:22.791Z,15.35
2022-12-23T08:01:51.771Z,15.93
2022-12-23T08:04:20.461Z,15.73
2022-12-23T08:06:49.294Z,18.38
2022-12-23T08:09:19.778Z,19.08
2022-12-23T08:11:48.300Z,20.45
2022-12-23T08:14:18.232Z,17.95
2022-12-23T08:19:15.535Z,20.08
2022-12-23T08:21:44.168Z,21.95
2022-12-23T08:24:12.909Z,21.42
2022-12-23T08:26:41.752Z,23.98
2022-12-23T08:29:10.278Z,25.98
2022-12-23T08:31:40.212Z,28.10
2022-12-23T08:34:10.623Z,26.70
2022-12-23T08:36:39.986Z,24.33
2022-12-23T08:39:11.229Z,30.27
2022-12-23T08:43:58.581Z,30.02
2022-12-23T08:46:28.170Z,32.85
2022-12-23T08:48:57.165Z,34.40
2022-12-23T08:54:04.062Z,19.27
2022-12-23T08:56:35.491Z,18.67
2022-12-23T08:59:04.554Z,17.00
2022-12-23T09:01:35.625Z,17.02
2022-12-23T09:04:05.395Z,16.33
2022-12-23T09:06:36.567Z,15.52
2022-12-23T09:09:07.351Z,14.63
2022-12-23T09:11:36.722Z,16.45
2022-12-23T09:14:07.021Z,17.52
2022-12-23T09:16:35.652Z,17.13
2022-12-23T09:19:04.835Z,17.20
2022-12-23T09:21:33.795Z,18.23
2022-12-23T09:24:02.371Z,16.23
2022-12-23T09:26:32.613Z,17.42
2022-12-23T09:29:01.704Z,16.75
2022-12-23T09:31:36.282Z,16.90
2022-12-23T09:34:06.538Z,20.73
2022-12-23T09:36:35.379Z,18.20
2022-12-23T09:39:03.966Z,16.65
2022-12-23T09:41:54.276Z,17.40
2022-12-23T09:44:44.846Z,15.82
2022-12-23T09:47:17.209Z,15.90
2022-12-23T09:49:50.867Z,19.67
2022-12-23T09:52:26.102Z,1.20
2022-12-23T09:54:56.140Z,1.00
2022-12-23T09:57:35.355Z,1.08
2022-12-23T10:00:14.373Z,1.33
2022-12-23T10:03:06.149Z,3.65
2022-12-23T10:05:47.626Z,10.57
2022-12-23T10:08:22.487Z,1.60
2022-12-23T10:10:54.522Z,2.10
2022-12-23T10:13:29.871Z,1.65
2022-12-23T10:16:05.349Z,19.30
2022-12-23T10:18:49.400Z,2.75
2022-12-23T10:21:25.667Z,2.72
2022-12-23T10:23:56.043Z,8.18
2022-12-23T10:26:26.763Z,4.78
2022-12-23T10:29:02.267Z,7.85
2022-12-23T10:31:41.309Z,7.53
2022-12-23T10:34:18.597Z,4.28
2022-12-23T10:36:55.350Z,3.90
2022-12-23T10:39:33.303Z,12.40
2022-12-23T10:42:12.184Z,3.00
2022-12-23T10:45:03.374Z,5.90
2022-12-23T10:47:49.956Z,16.83
2022-12-23T10:50:46.072Z,10.60
2022-12-23T10:53:22.071Z,20.38
2022-12-23T10:58:20.831Z,10.93
2022-12-23T11:00:55.032Z,12.02
2022-12-23T11:03:29.561Z,28.48
2022-12-23T11:05:59.625Z,0.65
2022-12-23T11:11:01.277Z,1.10
2022-12-23T11:13:37.104Z,1.42
2022-12-23T11:16:20.421Z,3.05
2022-12-23T11:18:58.020Z,2.20
2022-12-23T11:21:27.436Z,3.42
2022-12-23T11:24:14.836Z,3.22
2022-12-23T11:26:44.534Z,2.92
2022-12-23T11:29:20.845Z,2.13
2022-12-23T11:31:51.645Z,0.55
2022-12-23T11:34:23.830Z,0.73
2022-12-23T11:36:58.763Z,4.15
2022-12-23T11:39:34.027Z,5.25
2022-12-23T11:42:06.999Z,2.95
2022-12-23T11:44:40.250Z,4.55
2022-12-23T11:47:29.191Z,3.05
2022-12-23T11:50:00.298Z,0.98
2022-12-23T11:52:30.883Z,1.00
2022-12-23T11:55:01.571Z,2.22
2022-12-23T11:57:39.073Z,0.93
2022-12-23T12:00:09.504Z,0.52
2022-12-23T12:02:43.969Z,4.00
2022-12-23T12:05:22.652Z,2.58
2022-12-23T12:07:52.970Z,1.33
2022-12-23T12:10:26.910Z,6.40
2022-12-23T12:12:58.382Z,3.20
2022-12-23T12:15:35.648Z,2.50
2022-12-23T12:18:09.826Z,9.48
2022-12-23T12:20:43.083Z,1.90
2022-12-23T12:23:15.898Z,1.83
2022-12-23T12:25:49.851Z,2.92
2022-12-23T12:28:21.928Z,9.15
2022-12-23T12:30:55.680Z,8.77
2022-12-23T12:33:35.997Z,14.93
2022-12-23T12:36:13.744Z,12.13
2022-12-23T12:38:47.672Z,13.10
2022-12-23T12:41:21.413Z,22.42
2022-12-23T12:43:53.935Z,11.55
2022-12-23T12:46:31.676Z,19.02
2022-12-23T12:49:07.219Z,31.50
2022-12-23T12:51:44.619Z,22.63
2022-12-23T12:54:21.116Z,19.73
2022-12-23T12:56:51.194Z,27.83
2022-12-23T12:59:22.180Z,28.88
2022-12-23T13:02:08.421Z,32.53
2022-12-23T13:05:06.117Z,19.80
2022-12-23T13:07:44.799Z,22.58
2022-12-23T13:10:24.968Z,35.30
2022-12-23T13:13:01.574Z,41.90
2022-12-23T13:15:35.257Z,53.78
2022-12-23T13:20:32.413Z,61.92
2022-12-23T13:25:25.310Z,2.67
2022-12-23T13:27:58.142Z,3.10
2022-12-23T13:33:24.327Z,10.05
2022-12-23T13:36:06.744Z,7.40
2022-12-23T13:38:52.951Z,5.35
2022-12-23T13:41:31.501Z,14.27
2022-12-23T13:44:01.668Z,3.42
2022-12-23T13:46:44.550Z,3.00
2022-12-23T13:49:22.855Z,2.90
2022-12-23T13:51:58.608Z,2.70
2022-12-23T13:54:44.496Z,2.53
2022-12-23T13:57:24.531Z,10.75
2022-12-23T14:00:06.010Z,3.13
2022-12-23T14:02:50.963Z,2.13
2022-12-23T14:05:33.725Z,1.67
2022-12-23T14:08:04.557Z,2.85
2022-12-23T14:10:33.676Z,5.00
2022-12-23T14:13:06.451Z,2.40
2022-12-23T14:15:55.872Z,6.57
2022-12-23T14:18:43.465Z,6.97
2022-12-23T14:21:23.146Z,2.88
2022-12-23T14:24:23.660Z,2.40
2022-12-23T14:27:15.557Z,8.73
2022-12-23T14:30:03.375Z,5.28
2022-12-23T14:32:43.785Z,6.43
2022-12-23T14:35:28.927Z,1.00
2022-12-23T14:38:27.125Z,5.10
2022-12-23T14:41:00.448Z,1.40
2022-12-23T14:43:51.338Z,13.77
2022-12-23T14:46:58.597Z,9.60
2022-12-23T14:49:48.587Z,10.98
2022-12-23T14:52:53.880Z,4.18
2022-12-23T14:56:11.025Z,9.40
2022-12-23T14:59:13.875Z,1.60
2022-12-23T15:01:44.787Z,0.30
2022-12-23T15:04:19.366Z,0.80
2022-12-23T15:06:50.863Z,0.57
2022-12-23T15:09:26.171Z,0.90
2022-12-23T15:11:59.592Z,2.80
2022-12-23T15:14:33.951Z,14.18
2022-12-23T15:17:16.370Z,2.20
2022-12-23T15:19:48.409Z,12.23
2022-12-23T15:22:24.132Z,1.05
2022-12-23T15:24:57.018Z,0.98
2022-12-23T15:27:30.269Z,1.65
2022-12-23T15:29:59.524Z,11.63
2022-12-23T15:32:30.105Z,6.47
2022-12-23T15:35:04.984Z,21.00
2022-12-23T15:37:34.339Z,31.27
2022-12-23T15:40:12.155Z,30.13
2022-12-23T15:42:49.747Z,64.15
2022-12-23T15:45:36.811Z,14.02
2022-12-23T15:48:07.384Z,1.75
2022-12-23T15:50:42.181Z,4.47
2022-12-23T15:53:14.218Z,1.92
2022-12-23T15:55:42.931Z,5.28
2022-12-23T15:58:19.851Z,0.50
2022-12-23T16:00:54.514Z,0.30
2022-12-23T16:03:28.748Z,3.35
2022-12-23T16:06:08.343Z,2.33
2022-12-23T16:08:37.307Z,3.88
2022-12-23T16:11:13.473Z,1.20
2022-12-23T16:13:58.321Z,0.35
2022-12-23T16:16:33.784Z,2.25
2022-12-23T16:19:02.500Z,7.38
2022-12-23T16:21:34.460Z,3.10
2022-12-23T16:24:08.493Z,3.38
2022-12-23T16:26:41.773Z,9.27
2022-12-23T16:29:12.700Z,0.73
2022-12-23T16:31:49.839Z,4.15
2022-12-23T16:34:21.044Z,8.85
2022-12-23T16:36:49.696Z,1.65
2022-12-23T16:39:21.539Z,6.82
2022-12-23T16:41:51.029Z,4.72
2022-12-23T16:46:51.004Z,10.80
2022-12-23T16:49:22.457Z,4.35
2022-12-23T16:51:54.599Z,9.65
2022-12-23T16:54:23.132Z,10.95
2022-12-23T16:56:51.695Z,10.60
2022-12-23T16:59:21.591Z,12.23
2022-12-23T17:01:50.262Z,12.90
2022-12-23T17:04:19.289Z,14.68
2022-12-23T17:06:48.459Z,11.15
2022-12-23T17:09:17.018Z,16.42
2022-12-23T17:11:47.939Z,18.98
2022-12-23T17:14:19.196Z,15.23
2022-12-23T17:16:50.097Z,10.07
2022-12-23T17:19:28.035Z,12.68
2022-12-23T17:22:02.803Z,14.32
2022-12-23T17:24:31.738Z,14.68
2022-12-23T17:27:00.153Z,20.20
2022-12-23T17:29:28.708Z,13.45
2022-12-23T17:31:58.740Z,22.13
2022-12-23T17:34:27.670Z,23.05
2022-12-23T17:36:56.194Z,18.45
2022-12-23T17:39:25.367Z,22.63
2022-12-23T17:41:54.089Z,18.52
2022-12-23T17:44:22.577Z,37.97
2022-12-23T17:46:51.120Z,40.47
2022-12-23T17:49:21.015Z,47.65
2022-12-23T17:54:25.877Z,41.33
